createdAt,value
2017-08-13T00:01:25.773Z,16.64
2017-08-13T00:03:55.014Z,16.64
2017-08-13T00:06:24.256Z,16.60
2017-08-13T00:08:53.592Z,16.63
2017-08-13T00:11:22.837Z,16.59
2017-08-13T00:13:52.079Z,16.57
2017-08-13T00:16:21.331Z,16.58
2017-08-13T00:18:50.580Z,16.56
2017-08-13T00:21:19.820Z,16.59
2017-08-13T00:23:49.052Z,16.61
2017-08-13T00:26:18.342Z,16.60
2017-08-13T00:28:47.574Z,16.65
2017-08-13T00:31:16.849Z,16.70
2017-08-13T00:33:46.362Z,16.74
2017-08-13T00:36:15.592Z,16.77
2017-08-13T00:38:44.845Z,16.76
2017-08-13T00:41:14.096Z,16.77
2017-08-13T00:43:43.342Z,16.77
2017-08-13T00:46:12.596Z,16.78
2017-08-13T00:48:41.860Z,16.85
2017-08-13T00:51:11.151Z,16.86
2017-08-13T00:53:40.372Z,16.83
2017-08-13T00:56:09.624Z,16.79
2017-08-13T00:58:38.868Z,16.82
2017-08-13T01:01:07.787Z,16.89
2017-08-13T01:03:37.031Z,16.85
2017-08-13T01:06:06.275Z,16.80
2017-08-13T01:08:35.517Z,16.83
2017-08-13T01:11:04.769Z,16.82
2017-08-13T01:13:34.022Z,16.71
2017-08-13T01:16:03.273Z,16.71
2017-08-13T01:18:32.549Z,16.69
2017-08-13T01:21:01.791Z,16.76
2017-08-13T01:23:31.040Z,16.76
2017-08-13T01:26:00.285Z,16.76
2017-08-13T01:28:29.533Z,16.70
2017-08-13T01:30:58.785Z,16.68
2017-08-13T01:33:28.050Z,16.73
2017-08-13T01:35:57.390Z,16.68
2017-08-13T01:38:26.626Z,16.69
2017-08-13T01:40:55.869Z,16.63
2017-08-13T01:43:25.409Z,16.61
2017-08-13T01:45:54.649Z,16.62
2017-08-13T01:48:24.190Z,16.67
2017-08-13T01:50:53.415Z,16.61
2017-08-13T01:53:22.681Z,16.58
2017-08-13T01:55:52.253Z,16.50
2017-08-13T01:58:21.497Z,16.47
2017-08-13T02:00:50.756Z,16.46
2017-08-13T02:03:20.018Z,16.41
2017-08-13T02:05:49.274Z,16.36
2017-08-13T02:08:18.509Z,16.39
2017-08-13T02:10:47.766Z,16.32
2017-08-13T02:13:17.016Z,16.39
2017-08-13T02:15:46.281Z,16.34
2017-08-13T02:18:15.504Z,16.32
2017-08-13T02:20:44.773Z,16.32
2017-08-13T02:23:14.297Z,16.37
2017-08-13T02:25:43.640Z,16.36
2017-08-13T02:28:12.860Z,16.38
2017-08-13T02:30:42.112Z,16.34
2017-08-13T02:33:11.349Z,16.34
2017-08-13T02:35:40.614Z,16.33
2017-08-13T02:38:09.832Z,16.32
2017-08-13T02:40:39.080Z,16.35
2017-08-13T02:43:08.310Z,16.33
2017-08-13T02:45:37.545Z,16.35
2017-08-13T02:48:06.784Z,16.40
2017-08-13T02:50:36.027Z,16.40
2017-08-13T02:53:05.564Z,16.34
2017-08-13T02:55:34.805Z,16.36
2017-08-13T02:58:04.032Z,16.36
2017-08-13T03:00:33.324Z,16.34
2017-08-13T03:03:02.557Z,16.32
2017-08-13T03:05:31.805Z,16.33
2017-08-13T03:08:01.041Z,16.33
2017-08-13T03:10:30.288Z,16.31
2017-08-13T03:12:59.523Z,16.34
2017-08-13T03:15:28.787Z,16.30
2017-08-13T03:17:58.033Z,16.33
2017-08-13T03:20:27.339Z,16.28
2017-08-13T03:22:56.563Z,16.36
2017-08-13T03:25:25.813Z,16.27
2017-08-13T03:27:55.065Z,16.26
2017-08-13T03:30:24.341Z,16.27
2017-08-13T03:32:53.597Z,16.25
2017-08-13T03:35:22.903Z,16.25
2017-08-13T03:37:52.166Z,16.27
2017-08-13T03:40:21.447Z,16.27
2017-08-13T03:42:50.682Z,16.23
2017-08-13T03:45:20.243Z,16.19
2017-08-13T03:47:49.773Z,16.23
2017-08-13T03:50:19.063Z,16.25
2017-08-13T03:52:48.292Z,16.22
2017-08-13T03:55:17.636Z,16.20
2017-08-13T03:57:47.953Z,16.25
2017-08-13T04:00:17.520Z,16.18
2017-08-13T04:02:47.028Z,16.17
2017-08-13T04:05:16.596Z,16.13
2017-08-13T04:07:45.840Z,16.14
2017-08-13T04:10:15.146Z,16.22
2017-08-13T04:12:44.324Z,16.09
2017-08-13T04:15:13.619Z,16.06
2017-08-13T04:17:43.185Z,16.14
2017-08-13T04:20:12.462Z,16.15
2017-08-13T04:22:41.985Z,16.14
2017-08-13T04:25:11.277Z,16.08
2017-08-13T04:27:40.799Z,16.19
2017-08-13T04:30:10.379Z,16.13
2017-08-13T04:32:39.888Z,16.25
2017-08-13T04:35:09.202Z,16.20
2017-08-13T04:37:38.432Z,16.25
2017-08-13T04:40:07.995Z,16.22
2017-08-13T04:42:37.231Z,16.28
2017-08-13T04:45:06.548Z,16.31
2017-08-13T04:47:35.767Z,16.28
2017-08-13T04:50:05.118Z,16.34
2017-08-13T04:52:34.367Z,16.35
2017-08-13T04:55:03.639Z,16.39
2017-08-13T04:57:32.874Z,16.41
2017-08-13T05:00:02.218Z,16.42
2017-08-13T05:02:31.439Z,16.42
2017-08-13T05:05:00.696Z,16.45
2017-08-13T05:07:29.956Z,16.41
2017-08-13T05:09:59.211Z,16.40
2017-08-13T05:12:28.452Z,16.47
2017-08-13T05:14:57.705Z,16.50
2017-08-13T05:17:26.957Z,16.51
2017-08-13T05:19:56.209Z,16.55
2017-08-13T05:22:25.440Z,16.57
2017-08-13T05:24:54.689Z,16.60
2017-08-13T05:27:23.928Z,16.58
2017-08-13T05:29:53.177Z,16.59
2017-08-13T05:32:22.444Z,16.63
2017-08-13T05:34:51.698Z,16.68
2017-08-13T05:37:21.037Z,16.71
2017-08-13T05:39:50.267Z,16.72
2017-08-13T05:42:19.512Z,16.72
2017-08-13T05:44:48.760Z,16.74
2017-08-13T05:47:17.989Z,16.81
2017-08-13T05:49:47.260Z,16.81
2017-08-13T05:52:16.490Z,16.85
2017-08-13T05:54:45.721Z,16.90
2017-08-13T05:57:14.960Z,16.90
2017-08-13T05:59:44.236Z,16.90
2017-08-13T06:02:13.476Z,17.02
2017-08-13T06:04:43.393Z,16.94
2017-08-13T06:07:12.737Z,17.06
2017-08-13T06:09:42.612Z,17.02
2017-08-13T06:12:11.888Z,16.96
2017-08-13T06:14:41.138Z,16.94
2017-08-13T06:17:11.044Z,17.01
2017-08-13T06:19:40.297Z,17.12
2017-08-13T06:22:09.569Z,17.23
2017-08-13T06:24:38.803Z,17.17
2017-08-13T06:27:08.069Z,17.27
2017-08-13T06:29:37.349Z,17.38
2017-08-13T06:32:06.605Z,17.43
2017-08-13T06:34:35.840Z,17.56
2017-08-13T06:37:05.088Z,17.74
2017-08-13T06:39:34.329Z,17.76
2017-08-13T06:42:03.604Z,17.87
2017-08-13T06:44:32.851Z,17.99
2017-08-13T06:47:02.085Z,17.87
2017-08-13T06:49:31.328Z,18.01
2017-08-13T06:52:00.605Z,18.09
2017-08-13T06:54:29.852Z,17.99
2017-08-13T06:56:59.085Z,17.96
2017-08-13T06:59:28.358Z,17.98
2017-08-13T07:01:57.584Z,18.03
2017-08-13T07:04:26.824Z,17.97
2017-08-13T07:06:56.068Z,18.09
2017-08-13T07:09:25.345Z,17.87
2017-08-13T07:11:54.587Z,18.10
2017-08-13T07:14:25.442Z,18.27
2017-08-13T07:16:54.652Z,18.25
2017-08-13T07:19:23.894Z,18.30
2017-08-13T07:21:53.145Z,18.63
2017-08-13T07:24:22.394Z,18.54
2017-08-13T07:26:51.630Z,18.80
2017-08-13T07:29:20.869Z,19.04
2017-08-13T07:31:50.116Z,19.18
2017-08-13T07:34:19.365Z,19.15
2017-08-13T07:36:48.614Z,18.83
2017-08-13T07:39:17.853Z,19.04
2017-08-13T07:41:47.103Z,18.95
2017-08-13T07:44:16.360Z,19.06
2017-08-13T07:46:45.598Z,18.89
2017-08-13T07:49:14.844Z,19.08
2017-08-13T07:51:44.101Z,18.99
2017-08-13T07:54:13.354Z,18.96
2017-08-13T07:56:42.591Z,18.86
2017-08-13T07:59:11.844Z,18.74
2017-08-13T08:01:41.109Z,18.89
2017-08-13T08:04:10.393Z,18.80
2017-08-13T08:06:39.622Z,18.90
2017-08-13T08:09:08.875Z,18.88
2017-08-13T08:11:38.144Z,18.76
2017-08-13T08:14:07.409Z,18.79
2017-08-13T08:16:36.700Z,18.50
2017-08-13T08:19:05.991Z,18.44
2017-08-13T08:21:35.284Z,18.32
2017-08-13T08:24:04.546Z,18.22
2017-08-13T08:26:34.765Z,17.95
2017-08-13T08:29:04.051Z,17.83
2017-08-13T08:31:33.337Z,17.77
2017-08-13T08:34:02.590Z,17.69
2017-08-13T08:36:31.836Z,17.72
2017-08-13T08:39:01.081Z,17.84
2017-08-13T08:41:30.311Z,17.89
2017-08-13T08:43:59.556Z,17.83
2017-08-13T08:46:28.803Z,17.81
2017-08-13T08:48:58.089Z,17.96
2017-08-13T08:51:27.851Z,18.13
2017-08-13T08:53:57.108Z,17.93
2017-08-13T08:56:26.362Z,18.01
2017-08-13T08:58:55.605Z,17.98
2017-08-13T09:01:24.844Z,18.23
2017-08-13T09:03:54.103Z,18.28
2017-08-13T09:06:23.345Z,18.36
2017-08-13T09:08:52.608Z,18.40
2017-08-13T09:11:21.839Z,18.63
2017-08-13T09:13:51.086Z,18.65
2017-08-13T09:16:20.341Z,18.82
2017-08-13T09:18:49.588Z,19.08
2017-08-13T09:21:18.844Z,18.93
2017-08-13T09:23:48.356Z,19.22
2017-08-13T09:26:17.605Z,19.36
2017-08-13T09:28:46.502Z,19.18
2017-08-13T09:31:15.740Z,19.48
2017-08-13T09:33:44.983Z,19.47
2017-08-13T09:36:14.237Z,19.83
2017-08-13T09:38:43.493Z,19.85
2017-08-13T09:41:12.729Z,19.91
2017-08-13T09:43:41.979Z,20.03
2017-08-13T09:46:11.219Z,20.46
2017-08-13T09:48:40.466Z,20.54
2017-08-13T09:51:09.725Z,20.44
2017-08-13T09:53:38.964Z,20.76
2017-08-13T09:56:08.204Z,21.21
2017-08-13T09:58:37.451Z,21.59
2017-08-13T10:01:06.705Z,21.60
2017-08-13T10:03:35.954Z,21.31
2017-08-13T10:06:05.206Z,21.53
2017-08-13T10:08:34.472Z,21.65
2017-08-13T10:11:03.698Z,21.64
2017-08-13T10:13:33.002Z,21.64
2017-08-13T10:16:02.229Z,21.04
2017-08-13T10:18:31.505Z,21.41
2017-08-13T10:21:00.737Z,20.86
2017-08-13T10:23:29.978Z,21.05
2017-08-13T10:25:59.220Z,20.65
2017-08-13T10:28:28.497Z,20.62
2017-08-13T10:30:57.717Z,20.60
2017-08-13T10:33:26.972Z,20.60
2017-08-13T10:35:56.227Z,20.93
2017-08-13T10:38:25.486Z,21.10
2017-08-13T10:40:54.726Z,21.00
2017-08-13T10:43:23.976Z,21.02
2017-08-13T10:45:53.244Z,21.03
2017-08-13T10:48:22.498Z,21.09
2017-08-13T10:50:51.744Z,21.87
2017-08-13T10:53:20.985Z,21.51
2017-08-13T10:55:50.248Z,21.79
2017-08-13T10:58:19.522Z,21.43
2017-08-13T11:00:48.773Z,21.91
2017-08-13T11:03:18.717Z,22.13
2017-08-13T11:05:47.968Z,22.01
2017-08-13T11:08:17.214Z,22.44
2017-08-13T11:10:46.477Z,22.83
2017-08-13T11:13:15.747Z,22.73
2017-08-13T11:15:45.682Z,22.69
2017-08-13T11:18:14.913Z,23.20
2017-08-13T11:20:44.225Z,22.90
2017-08-13T11:23:13.468Z,23.76
2017-08-13T11:25:42.733Z,23.61
2017-08-13T11:28:11.961Z,23.78
2017-08-13T11:30:41.342Z,23.55
2017-08-13T11:33:10.601Z,22.46
2017-08-13T11:35:39.842Z,21.86
2017-08-13T11:38:09.080Z,22.07
2017-08-13T11:40:38.325Z,21.76
2017-08-13T11:43:07.582Z,21.73
2017-08-13T11:45:36.848Z,21.78
2017-08-13T11:48:06.139Z,22.89
2017-08-13T11:50:35.383Z,23.94
2017-08-13T11:53:04.636Z,24.57
2017-08-13T11:55:33.877Z,25.41
2017-08-13T11:58:03.142Z,25.54
2017-08-13T12:00:32.716Z,24.93
2017-08-13T12:03:01.948Z,25.07
2017-08-13T12:05:31.194Z,25.87
2017-08-13T12:08:00.434Z,25.57
2017-08-13T12:10:29.676Z,25.96
2017-08-13T12:12:58.924Z,26.95
2017-08-13T12:15:28.180Z,27.88
2017-08-13T12:17:57.431Z,27.91
2017-08-13T12:20:26.680Z,27.73
2017-08-13T12:22:55.921Z,27.28
2017-08-13T12:25:25.189Z,26.72
2017-08-13T12:27:54.484Z,26.52
2017-08-13T12:30:23.756Z,27.15
2017-08-13T12:32:53.035Z,26.25
2017-08-13T12:35:22.309Z,25.45
2017-08-13T12:37:51.534Z,25.04
2017-08-13T12:40:20.823Z,24.66
2017-08-13T12:42:50.066Z,24.80
2017-08-13T12:45:19.365Z,25.14
2017-08-13T12:47:48.608Z,25.40
2017-08-13T12:50:17.909Z,24.81
2017-08-13T12:52:47.136Z,26.13
2017-08-13T12:55:16.451Z,28.70
2017-08-13T12:57:45.676Z,29.75
2017-08-13T13:00:15.036Z,31.34
2017-08-13T13:02:44.296Z,31.81
2017-08-13T13:05:13.586Z,31.89
2017-08-13T13:07:42.812Z,32.75
2017-08-13T13:10:12.109Z,33.18
2017-08-13T13:12:41.336Z,33.38
2017-08-13T13:15:10.635Z,32.85
2017-08-13T13:17:39.865Z,33.41
2017-08-13T13:20:09.160Z,34.19
2017-08-13T13:22:38.409Z,32.23
2017-08-13T13:25:07.718Z,30.31
2017-08-13T13:27:36.945Z,28.59
2017-08-13T13:30:06.235Z,29.64
2017-08-13T13:32:35.498Z,31.27
2017-08-13T13:35:04.790Z,31.02
2017-08-13T13:37:34.063Z,30.77
2017-08-13T13:40:03.391Z,32.86
2017-08-13T13:42:32.636Z,31.27
2017-08-13T13:45:01.972Z,29.31
2017-08-13T13:47:31.215Z,29.25
2017-08-13T13:50:00.453Z,28.85
2017-08-13T13:52:29.713Z,29.02
2017-08-13T13:54:58.965Z,30.85
2017-08-13T13:57:28.226Z,30.18
2017-08-13T13:59:57.525Z,30.84
2017-08-13T14:02:26.748Z,30.78
2017-08-13T14:04:55.997Z,30.10
2017-08-13T14:07:25.245Z,30.66
2017-08-13T14:09:54.552Z,31.39
2017-08-13T14:12:23.829Z,32.16
2017-08-13T14:14:53.112Z,31.05
2017-08-13T14:17:22.413Z,31.24
2017-08-13T14:19:51.661Z,31.29
2017-08-13T14:22:20.936Z,30.34
2017-08-13T14:24:50.192Z,29.43
2017-08-13T14:27:19.421Z,30.13
2017-08-13T14:29:48.728Z,29.63
2017-08-13T14:32:18.165Z,28.45
2017-08-13T14:34:47.617Z,28.73
2017-08-13T14:37:17.057Z,28.90
2017-08-13T14:39:46.506Z,29.62
2017-08-13T14:42:15.965Z,31.03
2017-08-13T14:44:45.439Z,31.83
2017-08-13T14:47:14.889Z,33.43
2017-08-13T14:49:44.365Z,34.40
2017-08-13T14:52:13.786Z,33.47
2017-08-13T14:54:43.233Z,34.14
2017-08-13T14:57:12.777Z,34.54
2017-08-13T14:59:42.225Z,35.44
2017-08-13T15:02:11.715Z,33.82
2017-08-13T15:04:41.188Z,33.24
2017-08-13T15:07:10.692Z,30.68
2017-08-13T15:09:40.146Z,30.50
2017-08-13T15:12:09.577Z,29.17
2017-08-13T15:14:39.032Z,29.30
2017-08-13T15:17:08.596Z,29.29
2017-08-13T15:19:38.048Z,28.04
2017-08-13T15:22:07.516Z,28.55
2017-08-13T15:24:37.016Z,28.30
2017-08-13T15:27:06.500Z,29.62
2017-08-13T15:29:35.945Z,31.03
2017-08-13T15:32:05.407Z,30.53
2017-08-13T15:34:34.859Z,32.08
2017-08-13T15:37:04.294Z,32.02
2017-08-13T15:39:33.756Z,32.25
2017-08-13T15:42:03.201Z,33.28
2017-08-13T15:44:32.644Z,33.81
2017-08-13T15:47:02.108Z,31.15
2017-08-13T15:49:31.561Z,31.08
2017-08-13T15:52:01.011Z,29.85
2017-08-13T15:54:30.458Z,28.80
2017-08-13T15:56:59.905Z,28.11
2017-08-13T15:59:29.340Z,27.08
2017-08-13T16:01:58.834Z,26.35
2017-08-13T16:04:28.365Z,26.69
2017-08-13T16:06:57.832Z,26.05
2017-08-13T16:09:27.285Z,26.67
2017-08-13T16:11:56.730Z,26.53
2017-08-13T16:14:26.188Z,26.40
2017-08-13T16:16:55.628Z,27.53
2017-08-13T16:19:25.088Z,28.35
2017-08-13T16:21:54.545Z,29.52
2017-08-13T16:24:24.010Z,30.06
2017-08-13T16:26:53.471Z,30.60
2017-08-13T16:29:22.921Z,30.37
2017-08-13T16:31:52.365Z,30.97
2017-08-13T16:34:21.797Z,30.53
2017-08-13T16:36:51.257Z,30.92
2017-08-13T16:39:20.718Z,31.63
2017-08-13T16:41:50.283Z,30.68
2017-08-13T16:44:19.728Z,31.37
2017-08-13T16:46:49.194Z,31.55
2017-08-13T16:49:18.644Z,32.22
2017-08-13T16:51:48.144Z,32.34
2017-08-13T16:54:17.637Z,30.62
2017-08-13T16:56:47.088Z,30.05
2017-08-13T16:59:16.555Z,30.73
2017-08-13T17:01:46.009Z,30.58
2017-08-13T17:04:15.448Z,31.08
2017-08-13T17:06:44.904Z,31.26
2017-08-13T17:09:14.364Z,30.55
2017-08-13T17:11:43.815Z,31.10
2017-08-13T17:14:13.241Z,30.52
2017-08-13T17:16:42.684Z,28.72
2017-08-13T17:19:11.965Z,27.83
2017-08-13T17:21:41.429Z,27.48
2017-08-13T17:24:10.897Z,26.65
2017-08-13T17:26:40.392Z,26.27
2017-08-13T17:29:09.851Z,26.37
2017-08-13T17:31:39.299Z,26.26
2017-08-13T17:34:08.736Z,26.17
2017-08-13T17:36:38.245Z,25.85
2017-08-13T17:39:07.679Z,25.49
2017-08-13T17:41:37.125Z,25.07
2017-08-13T17:44:07.833Z,24.57
2017-08-13T17:46:37.346Z,24.16
2017-08-13T17:49:06.853Z,23.98
2017-08-13T17:51:36.439Z,23.67
2017-08-13T17:54:05.887Z,23.32
2017-08-13T17:56:35.322Z,22.87
2017-08-13T17:59:04.786Z,22.59
2017-08-13T18:01:34.225Z,22.41
2017-08-13T18:04:03.690Z,22.15
2017-08-13T18:06:33.140Z,21.84
2017-08-13T18:09:02.598Z,21.66
2017-08-13T18:11:31.869Z,21.44
2017-08-13T18:14:01.318Z,21.31
2017-08-13T18:16:30.754Z,21.10
2017-08-13T18:19:00.189Z,20.94
2017-08-13T18:21:29.672Z,20.76
2017-08-13T18:23:59.171Z,20.60
2017-08-13T18:26:28.615Z,20.43
2017-08-13T18:28:58.065Z,20.31
2017-08-13T18:31:27.500Z,20.16
2017-08-13T18:33:56.980Z,19.97
2017-08-13T18:36:26.436Z,19.87
2017-08-13T18:38:55.958Z,19.76
2017-08-13T18:41:25.481Z,19.65
2017-08-13T18:43:54.944Z,19.54
2017-08-13T18:46:25.089Z,19.43
2017-08-13T18:48:54.600Z,19.29
2017-08-13T18:51:24.786Z,19.22
2017-08-13T18:53:54.233Z,19.13
2017-08-13T18:56:23.691Z,19.05
2017-08-13T18:58:53.153Z,18.97
2017-08-13T19:01:22.602Z,18.86
2017-08-13T19:03:52.042Z,18.78
2017-08-13T19:06:21.510Z,18.66
2017-08-13T19:08:50.950Z,18.58
2017-08-13T19:11:20.427Z,18.52
2017-08-13T19:16:28.550Z,18.35
2017-08-13T19:18:58.050Z,18.26
2017-08-13T19:21:27.489Z,18.20
2017-08-13T19:23:56.930Z,18.13
2017-08-13T19:26:26.558Z,18.05
2017-08-13T19:28:56.088Z,17.97
2017-08-13T19:31:25.532Z,17.90
2017-08-13T19:33:54.975Z,17.84
2017-08-13T19:36:24.438Z,17.76
2017-08-13T19:38:53.904Z,17.72
2017-08-13T19:41:23.354Z,17.67
2017-08-13T19:43:52.802Z,17.60
2017-08-13T19:46:22.344Z,17.54
2017-08-13T19:48:51.789Z,17.47
2017-08-13T19:51:21.306Z,17.41
2017-08-13T19:53:50.783Z,17.33
2017-08-13T19:56:20.261Z,17.26
2017-08-13T19:58:49.701Z,17.20
2017-08-13T20:01:19.168Z,17.15
2017-08-13T20:03:48.730Z,17.09
2017-08-13T20:06:18.224Z,17.05
2017-08-13T20:08:47.761Z,17.02
2017-08-13T20:11:17.218Z,16.99
2017-08-13T20:13:46.679Z,16.96
2017-08-13T20:16:16.150Z,16.94
2017-08-13T20:18:45.606Z,16.91
2017-08-13T20:21:15.065Z,16.90
2017-08-13T20:23:44.540Z,16.89
2017-08-13T20:26:14.056Z,16.85
2017-08-13T20:28:43.500Z,16.82
2017-08-13T20:31:12.962Z,16.80
2017-08-13T20:33:42.407Z,16.77
2017-08-13T20:36:11.851Z,16.73
2017-08-13T20:38:41.288Z,16.69
2017-08-13T20:41:10.727Z,16.69
2017-08-13T20:43:40.177Z,16.72
2017-08-13T20:46:09.747Z,16.70
2017-08-13T20:48:39.205Z,16.76
2017-08-13T20:51:08.677Z,16.80
2017-08-13T20:53:38.133Z,16.77
2017-08-13T20:56:07.587Z,16.71
2017-08-13T20:58:37.033Z,16.65
2017-08-13T21:01:06.484Z,16.60
2017-08-13T21:03:35.940Z,16.53
2017-08-13T21:06:05.402Z,16.47
2017-08-13T21:08:35.556Z,16.41
2017-08-13T21:11:04.992Z,16.36
2017-08-13T21:13:34.448Z,16.31
2017-08-13T21:16:03.897Z,16.26
2017-08-13T21:18:33.376Z,16.23
2017-08-13T21:21:02.850Z,16.20
2017-08-13T21:23:32.298Z,16.16
2017-08-13T21:26:01.736Z,16.08
2017-08-13T21:28:31.326Z,16.03
2017-08-13T21:31:00.776Z,15.97
2017-08-13T21:33:30.245Z,15.93
2017-08-13T21:35:59.684Z,15.87
2017-08-13T21:38:29.124Z,15.83
2017-08-13T21:40:58.425Z,15.79
2017-08-13T21:43:27.861Z,15.75
2017-08-13T21:45:57.296Z,15.70
2017-08-13T21:48:26.753Z,15.66
2017-08-13T21:50:56.193Z,15.62
2017-08-13T21:53:25.641Z,15.57
2017-08-13T21:55:55.111Z,15.53
2017-08-13T21:58:24.844Z,15.51
2017-08-13T22:00:54.313Z,15.51
2017-08-13T22:03:29.389Z,15.50
2017-08-13T22:05:59.132Z,15.48
2017-08-13T22:08:28.867Z,15.43
2017-08-13T22:10:58.600Z,15.41
2017-08-13T22:13:28.075Z,15.38
2017-08-13T22:15:57.513Z,15.35
2017-08-13T22:18:26.953Z,15.32
2017-08-13T22:20:56.677Z,15.27
2017-08-13T22:23:26.144Z,15.22
2017-08-13T22:25:55.869Z,15.18
2017-08-13T22:28:25.617Z,15.14
2017-08-13T22:30:55.363Z,15.12
2017-08-13T22:33:25.101Z,15.10
2017-08-13T22:35:54.545Z,15.07
2017-08-13T22:38:24.015Z,15.03
2017-08-13T22:40:53.724Z,15.02
2017-08-13T22:43:23.478Z,15.01
2017-08-13T22:45:53.197Z,15.03
2017-08-13T22:48:22.926Z,15.04
2017-08-13T22:50:52.652Z,15.04
2017-08-13T22:53:22.094Z,15.04
2017-08-13T22:55:51.828Z,15.03
2017-08-13T22:58:21.584Z,15.01
2017-08-13T23:00:51.149Z,14.98
2017-08-13T23:03:20.692Z,14.95
2017-08-13T23:05:50.423Z,14.90
2017-08-13T23:08:20.172Z,14.85
2017-08-13T23:10:49.906Z,14.84
2017-08-13T23:13:19.629Z,14.81
2017-08-13T23:15:49.372Z,14.82
2017-08-13T23:18:19.109Z,14.84
2017-08-13T23:20:49.251Z,14.82
2017-08-13T23:23:18.976Z,14.83
2017-08-13T23:25:48.759Z,14.80
2017-08-13T23:28:18.510Z,14.78
2017-08-13T23:30:48.292Z,14.75
2017-08-13T23:33:18.010Z,14.72
2017-08-13T23:35:47.750Z,14.68
2017-08-13T23:38:17.491Z,14.66
2017-08-13T23:40:47.221Z,14.63
2017-08-13T23:43:17.001Z,14.60
2017-08-13T23:45:47.416Z,14.57
2017-08-13T23:48:17.147Z,14.54
2017-08-13T23:50:46.889Z,14.51
2017-08-13T23:53:16.620Z,14.50
2017-08-13T23:55:46.341Z,14.46
2017-08-13T23:58:16.091Z,14.44
